Time;durP1;ratioP1;P1;durP2;ratioP2;P2;SDS_P1;SDS_P2;PMS_P1;PMS_P2;Temp;Humidity;BMP_temperature;BMP_pressure;BME280_temperature;BME280_humidity;BME280_pressure;Samples;Min_cycle;Max_cycle;Signal;HPM_P1;HPM_P2
2022/12/10 00:02:18;;;;;;;16.77;7.47;;;1.00;99.90;;;0.56;100.00;100191.00;5156518;28;20041;-84
2022/12/10 00:04:50;;;;;;;19.63;8.50;;;1.00;99.90;;;0.54;100.00;100188.34;5162728;28;20066;-83
2022/12/10 00:07:22;;;;;;;16.40;7.50;;;1.00;99.90;;;0.51;100.00;100198.41;5143106;28;20038;-82
2022/12/10 00:09:56;;;;;;;19.92;8.45;;;1.00;99.90;;;0.48;100.00;100200.78;5153389;28;20043;-83
2022/12/10 00:12:28;;;;;;;15.30;7.07;;;0.90;99.90;;;0.49;100.00;100202.53;5154110;28;20056;-82
2022/12/10 00:15:00;;;;;;;17.58;7.47;;;0.90;99.90;;;0.49;100.00;100192.28;5153034;28;20429;-82
2022/12/10 00:17:32;;;;;;;17.77;8.00;;;0.90;99.90;;;0.49;100.00;100192.28;5170813;28;20107;-82
2022/12/10 00:20:06;;;;;;;18.15;8.98;;;0.90;99.90;;;0.51;100.00;100195.81;5172198;28;20102;-83
2022/12/10 00:22:38;;;;;;;20.13;8.98;;;0.90;99.90;;;0.52;100.00;100195.94;5155842;28;20551;-84
2022/12/10 00:25:12;;;;;;;19.98;9.18;;;1.00;99.90;;;0.52;100.00;100195.03;5171134;28;20043;-84
2022/12/10 00:30:21;;;;;;;19.88;9.27;;;1.00;99.90;;;0.51;100.00;100196.72;5108857;29;20508;-72
2022/12/10 00:32:53;;;;;;;17.48;8.43;;;1.00;99.90;;;0.53;100.00;100201.97;5101791;29;20051;-72
2022/12/10 00:35:25;;;;;;;18.30;8.60;;;1.00;99.90;;;0.55;100.00;100200.38;5111755;29;20054;-71
2022/12/10 00:37:57;;;;;;;19.13;7.95;;;1.00;99.90;;;0.54;100.00;100203.75;5123239;28;20424;-71
2022/12/10 00:40:31;;;;;;;17.27;8.10;;;1.00;99.90;;;0.56;100.00;100199.59;5123301;28;20047;-72
2022/12/10 00:43:03;;;;;;;21.92;10.15;;;1.00;99.90;;;0.56;100.00;100201.25;5122184;29;20097;-71
2022/12/10 00:45:35;;;;;;;18.88;9.30;;;1.00;99.90;;;0.58;100.00;100195.44;5122368;28;20138;-72
2022/12/10 00:48:07;;;;;;;20.60;9.50;;;1.00;99.90;;;0.61;100.00;100189.63;5122428;29;20043;-72
2022/12/10 00:50:39;;;;;;;18.85;8.70;;;1.00;99.90;;;0.62;100.00;100192.28;5122457;29;20049;-70
2022/12/10 00:53:11;;;;;;;22.45;8.90;;;1.10;99.90;;;0.61;100.00;100190.53;5123696;28;20078;-70
2022/12/10 00:55:45;;;;;;;18.80;8.30;;;1.10;99.90;;;0.63;100.00;100188.03;5126063;29;20055;-69
2022/12/10 00:58:17;;;;;;;17.52;7.57;;;1.10;99.90;;;0.62;100.00;100192.28;5126274;29;20389;-73
2022/12/10 01:00:49;;;;;;;24.45;10.13;;;1.10;99.90;;;0.62;100.00;100197.41;5127544;28;20051;-71
2022/12/10 01:03:22;;;;;;;24.30;10.40;;;1.00;99.90;;;0.60;100.00;100204.13;5127480;28;20043;-71
2022/12/10 01:05:55;;;;;;;22.50;10.52;;;1.00;99.90;;;0.61;100.00;100199.91;5126177;28;20142;-71
2022/12/10 01:08:27;;;;;;;22.60;10.23;;;1.10;99.90;;;0.60;100.00;100209.25;5126172;28;20047;-71
2022/12/10 01:11:00;;;;;;;25.08;10.75;;;1.10;99.90;;;0.60;100.00;100209.25;5127406;28;20043;-71
2022/12/10 01:13:33;;;;;;;22.63;10.60;;;1.10;99.90;;;0.57;100.00;100203.91;5125890;28;20047;-70
2022/12/10 01:16:08;;;;;;;24.00;10.55;;;1.10;99.90;;;0.60;100.00;100200.69;5125898;28;20563;-71
2022/12/10 01:18:40;;;;;;;;;;;1.10;99.90;;;0.58;100.00;100199.69;5130448;28;20590;-70
2022/12/10 01:21:15;;;;;;;23.55;10.18;;;1.10;99.90;;;0.57;100.00;100203.91;5145866;28;19922;-70
2022/12/10 01:23:50;;;;;;;23.48;9.68;;;1.00;99.90;;;0.59;100.00;100204.94;5145763;28;20122;-71
2022/12/10 01:26:27;;;;;;;21.48;9.75;;;1.10;99.90;;;0.60;100.00;100209.25;5146049;28;20499;-71
2022/12/10 01:29:00;;;;;;;22.08;9.73;;;1.10;99.90;;;0.59;100.00;100212.63;5145653;28;20050;-70
2022/12/10 01:31:34;;;;;;;23.00;9.80;;;1.10;99.90;;;0.59;100.00;100219.41;5144055;28;20065;-70
2022/12/10 01:34:11;;;;;;;29.13;11.43;;;1.00;99.90;;;0.54;100.00;100224.25;5146909;28;20070;-72
2022/12/10 01:36:45;;;;;;;24.25;10.65;;;1.10;99.90;;;0.52;100.00;100220.69;5147242;28;20496;-70
2022/12/10 01:39:19;;;;;;;21.45;9.73;;;1.00;99.90;;;0.51;100.00;100218.91;5146513;28;20046;-71
2022/12/10 01:41:56;;;;;;;20.67;9.98;;;1.00;99.90;;;0.47;100.00;100222.97;5145340;28;20054;-71
2022/12/10 01:45:06;;;;;;;23.23;9.68;;;1.00;99.90;;;0.47;100.00;100234.91;5145358;28;21849;-72
2022/12/10 01:47:38;;;;;;;20.73;8.77;;;0.90;99.90;;;0.44;100.00;100234.69;5145495;28;20093;-70
2022/12/10 01:50:11;;;;;;;21.90;8.68;;;0.90;99.90;;;0.40;100.00;100237.84;5146636;28;20094;-70
2022/12/10 01:52:43;;;;;;;20.45;9.20;;;0.90;99.90;;;0.39;100.00;100239.53;5145223;28;20523;-70
2022/12/10 01:55:54;;;;;;;20.65;9.52;;;0.80;99.90;;;0.32;100.00;100246.69;5145438;28;20050;-71
2022/12/10 01:58:27;;;;;;;17.98;8.85;;;0.80;99.90;;;0.24;100.00;100244.50;5138456;28;20141;-69
2022/12/10 02:01:07;;;;;;;19.58;8.57;;;0.80;99.90;;;0.20;100.00;100245.09;5144833;28;20093;-70
2022/12/10 02:03:55;;;;;;;20.67;8.73;;;0.70;99.90;;;0.17;100.00;100257.69;5159366;28;20518;-70
2022/12/10 02:06:42;;;;;;;19.67;7.80;;;0.60;99.90;;;0.12;100.00;100247.91;5145700;28;20527;-70
2022/12/10 02:09:26;;;;;;;19.65;8.68;;;0.60;99.90;;;0.07;100.00;100260.44;5145084;28;20503;-71
2022/12/10 02:12:11;;;;;;;18.95;8.15;;;0.50;99.90;;;0.02;100.00;100260.91;5145116;28;20054;-70
2022/12/10 02:14:55;;;;;;;20.17;8.57;;;0.50;99.90;;;-0.03;100.00;100252.91;5144704;28;20051;-70
2022/12/10 02:17:31;;;;;;;23.20;8.70;;;0.50;99.90;;;-0.05;100.00;100255.38;5144743;28;20035;-68
2022/12/10 02:20:09;;;;;;;19.92;7.82;;;0.40;99.90;;;-0.08;100.00;100255.16;5144856;28;20050;-68
2022/12/10 02:22:49;;;;;;;20.85;8.07;;;0.40;99.90;;;-0.08;100.00;100256.81;5144549;28;20057;-70
2022/12/10 02:25:25;;;;;;;17.38;7.57;;;0.40;99.90;;;-0.11;100.00;100254.97;5144829;28;20472;-71
2022/12/10 02:28:04;;;;;;;22.52;8.43;;;0.40;99.90;;;-0.11;100.00;100261.75;5144295;28;20093;-68
2022/12/10 02:30:41;;;;;;;19.00;8.68;;;0.40;99.90;;;-0.10;100.00;100255.84;5144601;28;20051;-71
2022/12/10 02:33:15;;;;;;;20.90;8.48;;;0.40;99.90;;;-0.09;100.00;100255.06;5144425;28;20459;-71
2022/12/10 02:35:51;;;;;;;22.58;9.18;;;0.40;99.90;;;-0.09;100.00;100255.06;5144415;28;20043;-70
2022/12/10 02:38:27;;;;;;;17.58;7.85;;;0.40;99.90;;;-0.08;100.00;100249.13;5144767;28;20521;-71
2022/12/10 02:41:06;;;;;;;17.58;8.15;;;0.40;99.90;;;-0.08;100.00;100251.69;5145691;28;20403;-70
2022/12/10 02:43:39;;;;;;;20.55;8.30;;;0.40;99.90;;;-0.06;100.00;100245.03;5145346;28;20077;-71
2022/12/10 02:46:13;;;;;;;22.58;9.70;;;0.50;99.90;;;-0.04;100.00;100252.03;5144127;28;20063;-70
2022/12/10 02:48:49;;;;;;;21.65;9.65;;;0.50;99.90;;;-0.01;100.00;100241.97;5144103;28;20303;-71
2022/12/10 02:51:21;;;;;;;24.88;9.35;;;0.50;99.90;;;0.03;100.00;100244.75;5144238;28;20046;-71
2022/12/10 02:54:00;;;;;;;23.40;10.00;;;0.50;99.90;;;0.04;100.00;100242.28;5143840;28;20178;-71
2022/12/10 02:56:41;;;;;;;17.98;8.10;;;0.50;99.90;;;0.06;100.00;100248.41;5144018;28;20488;-69
2022/12/10 02:59:22;;;;;;;21.10;8.98;;;0.50;99.90;;;0.09;100.00;100253.75;5143914;28;20070;-71
2022/12/10 03:02:09;;;;;;;20.98;8.57;;;0.60;99.90;;;0.11;100.00;100249.59;5144112;28;20051;-71
2022/12/10 03:04:52;;;;;;;17.30;8.73;;;0.60;99.90;;;0.11;100.00;100253.84;5143631;28;20082;-71
2022/12/10 03:07:31;;;;;;;25.33;10.27;;;0.60;99.90;;;0.12;100.00;100248.81;5145091;28;20054;-71
2022/12/10 03:10:11;;;;;;;21.98;10.10;;;0.60;99.90;;;0.17;100.00;100267.97;5144898;28;20042;-70
2022/12/10 03:12:49;;;;;;;25.20;10.57;;;0.60;99.90;;;0.19;100.00;100261.25;5143790;28;20058;-71
2022/12/10 03:15:24;;;;;;;18.90;8.18;;;0.70;99.90;;;0.21;100.00;100266.50;5144946;28;20419;-71
2022/12/10 03:18:02;;;;;;;21.50;8.23;;;0.70;99.90;;;0.22;100.00;100266.59;5143882;28;20385;-71
2022/12/10 03:20:39;;;;;;;18.38;9.27;;;0.70;99.90;;;0.23;100.00;100270.03;5144933;28;20047;-71
2022/12/10 03:23:16;;;;;;;23.85;9.82;;;0.70;99.90;;;0.23;100.00;100270.94;5145010;28;20076;-70
2022/12/10 03:25:50;;;;;;;20.30;7.55;;;0.70;99.90;;;0.26;100.00;100268.59;5143329;28;20399;-71
2022/12/10 03:28:23;;;;;;;20.98;9.45;;;0.70;99.90;;;0.26;100.00;100271.16;5144572;28;20042;-71
2022/12/10 03:30:57;;;;;;;20.13;9.15;;;0.70;99.90;;;0.29;100.00;100267.00;5143723;28;20515;-71
2022/12/10 03:33:31;;;;;;;21.90;9.02;;;0.70;99.90;;;0.30;100.00;100266.22;5144469;28;20043;-71
2022/12/10 03:36:04;;;;;;;20.08;8.52;;;0.70;99.90;;;0.31;100.00;100268.88;5144325;28;20034;-71
2022/12/10 03:38:38;;;;;;;19.85;8.57;;;0.80;99.90;;;0.32;100.00;100264.63;5143067;28;20054;-71
2022/12/10 03:41:10;;;;;;;20.30;8.25;;;0.80;99.90;;;0.34;100.00;100265.66;5144435;28;20042;-71
2022/12/10 03:43:54;;;;;;;22.92;9.57;;;0.80;99.90;;;0.36;100.00;100264.06;5144387;28;20070;-71
2022/12/10 03:46:29;;;;;;;22.02;9.43;;;0.80;99.90;;;0.38;100.00;100263.38;5142961;28;20515;-71
2022/12/10 03:49:03;;;;;;;21.42;9.32;;;0.80;99.90;;;0.41;100.00;100263.59;5144327;28;20042;-68
2022/12/10 03:51:35;;;;;;;19.35;8.60;;;0.90;99.90;;;0.43;100.00;100271.38;5144322;28;20043;-68
2022/12/10 03:54:07;;;;;;;21.73;8.05;;;0.90;99.90;;;0.44;100.00;100262.88;5144689;28;20393;-71
2022/12/10 03:56:39;;;;;;;22.45;9.80;;;0.90;99.90;;;0.46;100.00;100269.03;5144740;28;20045;-71
2022/12/10 03:59:12;;;;;;;21.08;8.90;;;0.90;99.90;;;0.45;100.00;100269.78;5144082;28;20094;-71
2022/12/10 04:01:44;;;;;;;22.08;9.65;;;0.90;99.90;;;0.44;100.00;100268.03;5143990;28;20047;-71
2022/12/10 04:04:17;;;;;;;22.80;9.75;;;0.90;99.90;;;0.46;100.00;100272.47;5144044;28;20069;-71
2022/12/10 04:06:49;;;;;;;24.20;9.88;;;0.90;99.90;;;0.47;100.00;100273.38;5144032;28;20057;-71
2022/12/10 04:09:22;;;;;;;24.08;10.13;;;0.90;99.90;;;0.47;100.00;100279.38;5143986;28;20038;-71
2022/12/10 04:11:57;;;;;;;25.83;10.07;;;0.90;99.90;;;0.49;100.00;100277.81;5143919;28;20045;-71
2022/12/10 04:17:19;;;;;;;21.73;9.18;;;0.90;99.90;;;0.49;100.00;100285.50;5143944;28;20491;-70
2022/12/10 04:19:53;;;;;;;21.75;9.18;;;0.90;99.90;;;0.50;100.00;100291.50;5143865;28;20078;-70
2022/12/10 04:28:04;;;;;;;21.63;9.13;;;0.90;99.90;;;0.47;100.00;100281.06;5143540;28;20038;-70
2022/12/10 04:30:36;;;;;;;22.50;8.68;;;0.90;99.90;;;0.46;100.00;100287.88;5143962;28;20050;-70
2022/12/10 04:33:08;;;;;;;23.38;8.60;;;0.90;99.90;;;0.47;100.00;100293.88;5141950;28;20397;-70
2022/12/10 04:35:42;;;;;;;21.95;9.02;;;0.90;99.90;;;0.50;100.00;100294.97;5143675;28;20462;-70
2022/12/10 04:38:14;;;;;;;24.23;9.75;;;0.90;99.90;;;0.52;100.00;100287.34;5142373;28;20066;-69
2022/12/10 04:40:47;;;;;;;23.42;8.77;;;0.90;99.90;;;0.51;100.00;100283.91;5143402;28;20644;-70
2022/12/10 04:43:19;;;;;;;21.73;9.00;;;0.90;99.90;;;0.53;100.00;100289.16;5142049;28;20523;-71
2022/12/10 04:45:51;;;;;;;25.10;9.65;;;1.00;99.90;;;0.52;100.00;100292.50;5143521;28;20047;-70
2022/12/10 04:48:23;;;;;;;25.80;9.95;;;1.00;99.90;;;0.52;100.00;100295.06;5142637;28;20047;-70
2022/12/10 04:50:56;;;;;;;20.42;8.95;;;0.90;99.90;;;0.53;100.00;100291.72;5143724;28;20042;-70
2022/12/10 04:53:28;;;;;;;21.83;8.82;;;1.00;99.90;;;0.53;100.00;100297.75;5143455;28;20051;-70
2022/12/10 04:56:01;;;;;;;20.30;7.75;;;1.00;99.90;;;0.55;100.00;100297.84;5142249;28;20567;-70
2022/12/10 04:58:34;;;;;;;21.23;8.68;;;1.00;99.90;;;0.55;100.00;100292.72;5143625;28;20046;-70
2022/12/10 05:01:08;;;;;;;25.48;8.55;;;1.00;99.90;;;0.54;100.00;100293.50;5143269;28;20410;-71
2022/12/10 05:03:41;;;;;;;26.67;11.10;;;1.00;99.90;;;0.51;100.00;100290.72;5143285;28;20047;-70
2022/12/10 05:06:17;;;;;;;29.85;10.57;;;0.90;99.90;;;0.51;100.00;100294.16;5143027;28;20563;-69
2022/12/10 05:08:49;;;;;;;29.42;10.48;;;1.00;99.90;;;0.49;100.00;100293.19;5143357;28;20522;-71
2022/12/10 05:11:24;;;;;;;26.70;10.45;;;1.00;99.90;;;0.51;100.00;100286.47;5143207;28;20047;-71
2022/12/10 05:13:58;;;;;;;25.77;10.25;;;1.00;99.90;;;0.53;100.00;100290.06;5143136;28;20038;-71
2022/12/10 05:16:33;;;;;;;22.25;8.50;;;1.00;99.90;;;0.54;100.00;100294.38;5143083;28;20046;-68
2022/12/10 05:19:05;;;;;;;22.75;10.15;;;1.00;99.90;;;0.52;100.00;100293.41;5142949;28;20049;-70
2022/12/10 05:24:28;;;;;;;24.88;10.15;;;1.00;99.90;;;0.51;100.00;100289.03;5143013;28;20054;-70
2022/12/10 05:27:00;;;;;;;22.42;9.45;;;1.00;99.90;;;0.56;100.00;100293.59;5142927;28;20057;-71
2022/12/10 05:29:34;;;;;;;26.67;9.98;;;1.00;99.90;;;0.58;100.00;100294.56;5142920;28;20053;-70
2022/12/10 05:32:06;;;;;;;21.92;8.55;;;1.00;99.90;;;0.60;100.00;100306.75;5141780;28;20105;-71
2022/12/10 05:34:39;;;;;;;22.63;9.15;;;1.10;99.90;;;0.60;100.00;100293.03;5143095;28;20054;-70
2022/12/10 05:37:12;;;;;;;26.70;9.38;;;1.00;99.90;;;0.58;100.00;100300.59;5143160;28;20049;-69
2022/12/10 05:39:44;;;;;;;21.45;8.05;;;1.00;99.90;;;0.57;100.00;100303.94;5143236;28;20034;-70
2022/12/10 05:42:16;;;;;;;19.95;8.20;;;1.00;99.90;;;0.57;100.00;100305.63;5146483;28;20407;-70
2022/12/10 05:44:48;;;;;;;22.15;7.85;;;1.00;99.90;;;0.58;100.00;100304.84;5146479;28;20452;-70
2022/12/10 05:47:20;;;;;;;20.13;8.63;;;1.00;99.90;;;0.59;100.00;100304.97;5146826;28;20408;-70
2022/12/10 05:49:53;;;;;;;22.48;9.43;;;1.00;99.90;;;0.60;100.00;100317.00;5145399;28;20078;-71
2022/12/10 05:52:26;;;;;;;25.05;8.38;;;1.00;99.90;;;0.60;100.00;100311.88;5146469;28;20411;-71
2022/12/10 05:54:59;;;;;;;24.58;8.95;;;1.00;99.90;;;0.57;100.00;100311.66;5145053;28;20416;-69
2022/12/10 05:57:31;;;;;;;26.77;10.10;;;1.10;99.90;;;0.56;100.00;100314.13;5146267;28;20518;-71
2022/12/10 06:00:05;;;;;;;26.95;10.43;;;1.00;99.90;;;0.54;100.00;100314.03;5146351;28;20515;-70
2022/12/10 06:02:44;;;;;;;24.52;9.52;;;1.00;99.90;;;0.55;100.00;100318.34;5146496;28;20723;-71
2022/12/10 06:05:16;;;;;;;33.97;10.80;;;1.00;99.90;;;0.54;100.00;100311.47;5145134;28;20133;-72
2022/12/10 06:07:50;;;;;;;26.60;10.18;;;1.00;99.90;;;0.50;100.00;100317.16;5144782;28;20054;-67
2022/12/10 06:10:23;;;;;;;28.77;10.82;;;1.00;99.90;;;0.49;100.00;100323.06;5146270;28;20042;-70
2022/12/10 06:12:55;;;;;;;27.30;10.40;;;1.00;99.90;;;0.47;100.00;100320.41;5146225;28;20042;-71
2022/12/10 06:15:27;;;;;;;28.58;9.88;;;1.00;99.90;;;0.49;100.00;100320.50;5145913;28;20051;-71
2022/12/10 06:18:00;;;;;;;24.73;10.07;;;1.00;99.90;;;0.49;100.00;100323.97;5145863;28;20054;-71
2022/12/10 06:20:32;;;;;;;26.13;9.32;;;1.00;99.90;;;0.49;100.00;100320.50;5145620;28;20412;-71
2022/12/10 06:23:06;;;;;;;30.98;10.48;;;1.00;99.90;;;0.45;100.00;100331.34;5145328;28;20059;-71
2022/12/10 06:25:39;;;;;;;29.65;10.75;;;0.90;99.90;;;0.41;100.00;100326.81;5145792;28;20047;-71
2022/12/10 06:28:12;;;;;;;26.38;9.40;;;0.90;99.90;;;0.37;100.00;100327.38;5253064;23;20050;-71
2022/12/10 06:30:44;;;;;;;27.92;10.73;;;0.90;99.90;;;0.32;100.00;100328.72;5181377;28;20585;-70
2022/12/10 06:33:16;;;;;;;30.15;11.07;;;0.80;99.90;;;0.33;100.00;100335.66;5146813;28;20043;-71
2022/12/10 06:35:48;;;;;;;22.95;8.60;;;0.80;99.90;;;0.37;100.00;100322.25;5145167;28;20047;-70
2022/12/10 06:38:22;;;;;;;24.58;9.35;;;0.90;99.90;;;0.43;100.00;100325.22;5145181;28;20053;-70
2022/12/10 06:40:55;;;;;;;26.38;8.98;;;0.90;99.90;;;0.46;100.00;100328.00;5144042;28;20046;-71
2022/12/10 06:43:30;;;;;;;27.55;9.52;;;1.00;99.90;;;0.48;100.00;100336.69;5145225;28;20047;-71
2022/12/10 06:46:07;;;;;;;26.08;9.27;;;1.00;99.90;;;0.47;100.00;100330.69;5145221;28;20119;-71
2022/12/10 06:48:40;;;;;;;26.73;9.95;;;1.00;99.90;;;0.44;100.00;100339.81;5145289;28;20043;-71
2022/12/10 06:51:13;;;;;;;25.35;9.77;;;0.90;99.90;;;0.41;100.00;100344.75;5143768;28;20054;-70
2022/12/10 06:53:47;;;;;;;25.85;10.82;;;0.90;99.90;;;0.41;100.00;100326.81;5144941;28;20451;-71
2022/12/10 06:56:20;;;;;;;27.40;8.88;;;0.90;99.90;;;0.39;100.00;100336.06;5145190;28;20403;-70
2022/12/10 06:58:52;;;;;;;22.52;9.93;;;0.90;99.90;;;0.43;100.00;100344.06;5144901;28;20050;-70
2022/12/10 07:01:26;;;;;;;21.25;8.35;;;1.00;99.90;;;0.48;100.00;100346.94;5145258;28;20117;-66
2022/12/10 07:03:59;;;;;;;23.30;8.10;;;1.00;99.90;;;0.52;100.00;100346.34;5144933;28;20421;-54
2022/12/10 07:06:32;;;;;;;23.75;9.07;;;1.00;99.90;;;0.56;100.00;100356.03;5144187;28;20043;-55
2022/12/10 07:09:06;;;;;;;24.65;9.07;;;1.00;99.90;;;0.62;100.00;100358.13;5144466;28;20526;-56
2022/12/10 07:11:39;;;;;;;24.02;8.43;;;1.10;99.90;;;0.67;100.00;100360.22;5144443;28;20116;-55
2022/12/10 07:14:15;;;;;;;23.75;8.98;;;1.10;99.90;;;0.70;100.00;100365.53;5143717;28;20059;-55
2022/12/10 07:16:47;;;;;;;19.98;7.88;;;1.10;99.90;;;0.74;100.00;100361.53;5144289;28;20545;-57
2022/12/10 07:19:19;;;;;;;21.63;8.52;;;1.20;99.90;;;0.75;100.00;100359.06;5144410;28;20696;-56
2022/12/10 07:21:52;;;;;;;22.13;8.90;;;1.20;99.90;;;0.77;100.00;100354.91;5144019;28;20057;-55
2022/12/10 07:24:25;;;;;;;20.50;8.77;;;1.20;99.90;;;0.80;100.00;100354.22;5143817;28;20319;-54
2022/12/10 07:26:57;;;;;;;24.55;9.52;;;1.20;99.90;;;0.77;100.00;100370.28;5144529;28;20042;-57
2022/12/10 07:29:29;;;;;;;25.52;8.88;;;1.30;99.90;;;0.72;100.00;100368.25;5144146;28;20434;-55
2022/12/10 07:32:01;;;;;;;23.15;9.45;;;1.30;99.90;;;0.66;100.00;100378.09;5144033;28;20051;-56
2022/12/10 07:34:34;;;;;;;21.88;7.95;;;1.20;99.90;;;0.65;100.00;100374.63;5142734;28;20053;-56
2022/12/10 07:37:06;;;;;;;20.73;8.95;;;1.20;99.90;;;0.66;100.00;100372.94;5143794;28;20126;-57
2022/12/10 07:39:40;;;;;;;24.73;9.95;;;1.20;99.90;;;0.69;100.00;100384.28;5142591;28;20063;-56
2022/12/10 07:42:12;;;;;;;20.98;9.13;;;1.20;99.90;;;0.70;100.00;100380.94;5144077;28;20492;-56
2022/12/10 07:44:44;;;;;;;28.08;11.25;;;1.20;99.90;;;0.69;100.00;100380.84;5143590;28;20055;-56
2022/12/10 07:47:17;;;;;;;21.35;8.85;;;1.20;99.90;;;0.70;100.00;100391.19;5143866;28;20050;-55
2022/12/10 07:49:49;;;;;;;20.90;9.65;;;1.20;99.90;;;0.74;100.00;100388.06;5143649;28;20061;-55
2022/12/10 07:52:21;;;;;;;24.23;9.18;;;1.20;99.90;;;0.79;100.00;100393.50;5144050;28;20047;-56
2022/12/10 07:54:55;;;;;;;24.48;9.68;;;1.30;99.90;;;0.80;100.00;100393.59;5143461;28;20050;-57
2022/12/10 07:57:27;;;;;;;20.27;8.50;;;1.30;99.90;;;0.82;100.00;100397.16;5143843;28;20061;-55
2022/12/10 07:59:59;;;;;;;21.80;8.38;;;1.30;99.90;;;0.86;100.00;100400.84;5143645;28;20267;-56
2022/12/10 08:02:32;;;;;;;19.40;8.07;;;1.30;99.90;;;0.91;100.00;100402.00;5144208;28;20144;-55
2022/12/10 08:05:04;;;;;;;23.58;8.77;;;1.40;99.90;;;0.95;100.00;100398.88;5143393;28;20116;-55
2022/12/10 08:07:36;;;;;;;24.67;9.13;;;1.40;99.90;;;0.95;100.00;100398.88;5144056;28;20043;-55
2022/12/10 08:10:10;;;;;;;21.90;10.30;;;1.40;99.90;;;0.96;100.00;100405.78;5143447;28;20043;-56
2022/12/10 08:12:42;;;;;;;20.13;8.85;;;1.40;99.90;;;0.98;100.00;100408.47;5143786;28;20061;-54
2022/12/10 08:15:14;;;;;;;21.05;8.27;;;1.40;99.90;;;1.00;100.00;100401.75;5143456;28;20053;-56
2022/12/10 08:17:46;;;;;;;24.25;10.23;;;1.50;99.90;;;1.00;100.00;100407.75;5143488;28;20050;-55
2022/12/10 08:20:18;;;;;;;27.30;11.43;;;1.40;99.90;;;0.97;100.00;100404.09;5129065;28;20491;-55
2022/12/10 08:22:51;;;;;;;24.55;9.82;;;1.50;99.90;;;0.98;100.00;100414.50;5131955;28;20514;-55
2022/12/10 08:25:24;;;;;;;22.77;10.20;;;1.50;99.90;;;1.03;100.00;100413.09;5137735;28;20056;-55
2022/12/10 08:27:57;;;;;;;24.48;10.38;;;1.50;99.90;;;1.07;100.00;100424.47;5135405;28;20122;-55
2022/12/10 08:30:29;;;;;;;31.73;13.00;;;1.50;99.90;;;1.09;100.00;100418.63;5097177;28;20099;-54
2022/12/10 08:33:01;;;;;;;29.55;11.98;;;1.50;99.90;;;1.14;100.00;100420.63;5161318;28;20065;-55
2022/12/10 08:35:33;;;;;;;30.02;12.82;;;1.60;99.90;;;1.16;100.00;100425.06;5142024;28;20503;-55
2022/12/10 08:38:05;;;;;;;24.15;10.45;;;1.60;99.90;;;1.20;100.00;100423.59;5141177;28;20035;-56
2022/12/10 08:40:41;;;;;;;23.90;10.30;;;1.60;99.90;;;1.23;100.00;100426.34;5135001;28;20043;-55
2022/12/10 08:43:13;;;;;;;26.60;11.05;;;1.60;99.90;;;1.24;100.00;100429.03;5142633;28;20047;-56
2022/12/10 08:45:45;;;;;;;27.08;10.65;;;1.60;99.90;;;1.24;100.00;100436.75;5142947;28;20051;-55
2022/12/10 08:48:18;;;;;;;21.70;9.93;;;1.70;99.90;;;1.44;100.00;100432.03;5137753;28;20074;-54
2022/12/10 08:50:53;;;;;;;21.10;9.60;;;1.90;99.90;;;1.49;100.00;100438.31;5143350;28;20046;-55
2022/12/10 08:53:25;;;;;;;22.17;9.23;;;1.90;99.90;;;1.48;100.00;100444.25;5142762;28;20415;-54
2022/12/10 08:55:59;;;;;;;20.02;9.40;;;1.90;99.90;;;1.46;100.00;100444.16;5142744;28;20042;-55
2022/12/10 08:58:31;;;;;;;21.02;9.48;;;1.90;99.90;;;1.47;100.00;100442.50;5137280;28;20053;-57
2022/12/10 09:01:08;;;;;;;20.38;9.25;;;1.90;99.90;;;1.48;100.00;100444.25;5143777;28;20051;-54
2022/12/10 09:03:41;;;;;;;23.50;9.75;;;1.90;99.90;;;1.49;100.00;100446.03;5142741;28;20070;-55
2022/12/10 09:06:16;;;;;;;23.45;10.55;;;1.90;99.90;;;1.50;100.00;100447.81;5143016;28;20554;-55
2022/12/10 09:08:48;;;;;;;24.88;11.07;;;1.90;99.90;;;1.47;100.00;100452.75;5142870;28;20077;-55
2022/12/10 09:11:25;;;;;;;22.05;9.68;;;1.90;99.90;;;1.46;100.00;100457.00;5143123;28;20522;-55
2022/12/10 09:13:58;;;;;;;22.80;9.98;;;1.90;99.90;;;1.50;100.00;100452.94;5142600;28;20043;-57
2022/12/10 09:16:32;;;;;;;26.60;10.27;;;1.90;99.90;;;1.51;100.00;100450.50;5146287;28;20054;-55
2022/12/10 09:19:05;;;;;;;23.20;9.77;;;1.90;99.90;;;1.54;100.00;100448.13;5132989;28;20055;-56
2022/12/10 09:21:38;;;;;;;28.52;12.88;;;2.00;99.90;;;1.56;100.00;100443.06;5134093;28;20051;-55
2022/12/10 09:24:10;;;;;;;29.38;12.20;;;2.00;99.90;;;1.53;100.00;100437.75;5139370;28;20071;-55
2022/12/10 09:26:44;;;;;;;24.48;9.93;;;2.00;99.90;;;1.56;100.00;100448.22;5145831;28;20430;-57
2022/12/10 09:29:16;;;;;;;25.80;10.02;;;2.00;99.90;;;1.63;100.00;100447.84;5146203;28;20266;-55
2022/12/10 09:31:51;;;;;;;29.30;12.15;;;2.00;99.90;;;1.66;100.00;100444.56;5142801;28;20053;-56
2022/12/10 09:34:23;;;;;;;22.42;9.73;;;2.10;99.90;;;1.68;100.00;100454.16;5146255;28;20106;-57
2022/12/10 09:36:55;;;;;;;22.10;8.90;;;2.10;99.90;;;1.74;100.00;100458.78;5141817;28;20049;-54
2022/12/10 09:39:27;;;;;;;20.63;9.30;;;2.10;99.90;;;1.79;100.00;100452.28;5143846;28;20042;-57
2022/12/10 09:42:34;;;;;;;21.30;8.82;;;2.20;99.90;;;1.84;100.00;100462.06;5146099;28;20534;-55
2022/12/10 09:45:17;;;;;;;21.65;8.07;;;2.20;99.90;;;1.87;100.00;100464.81;5143084;28;20401;-56
2022/12/10 09:48:01;;;;;;;18.65;8.02;;;2.20;99.90;;;1.90;100.00;100457.31;5144959;28;20042;-57
2022/12/10 09:50:45;;;;;;;21.08;8.68;;;2.30;99.90;;;1.95;100.00;100460.16;5142070;28;20035;-56
2022/12/10 09:53:20;;;;;;;20.35;8.90;;;2.30;99.90;;;2.03;100.00;100453.84;5144526;28;20512;-54
2022/12/10 09:55:52;;;;;;;20.92;8.45;;;2.30;99.90;;;2.08;100.00;100456.69;5144510;28;20122;-55
2022/12/10 09:58:28;;;;;;;19.60;8.20;;;2.40;99.90;;;2.13;100.00;100455.28;5141027;28;20047;-54
2022/12/10 10:01:03;;;;;;;20.17;8.38;;;2.40;99.90;;;2.17;100.00;100460.72;5145886;28;20496;-54
2022/12/10 10:03:40;;;;;;;24.65;10.13;;;2.50;99.90;;;2.16;100.00;100458.97;5143124;28;20047;-56
2022/12/10 10:06:14;;;;;;;19.88;9.52;;;2.50;99.90;;;2.13;100.00;100463.00;5145942;28;20431;-57
2022/12/10 10:08:49;;;;;;;24.52;9.75;;;2.50;99.90;;;2.51;100.00;100457.69;5145702;28;20073;-55
2022/12/10 10:11:26;;;;;;;21.85;10.05;;;2.90;99.90;;;2.55;100.00;100458.78;5145989;28;20051;-55
2022/12/10 10:14:05;;;;;;;19.27;8.10;;;2.90;99.90;;;2.51;100.00;100456.78;5145573;28;20594;-55
2022/12/10 10:16:45;;;;;;;22.80;10.30;;;2.90;99.90;;;2.48;100.00;100454.00;5145541;28;20517;-55
2022/12/10 10:19:22;;;;;;;21.30;9.23;;;2.90;99.90;;;2.43;100.00;100451.19;5145221;28;20534;-56
2022/12/10 10:21:55;;;;;;;25.45;11.35;;;2.80;99.90;;;2.37;100.00;100467.13;5145645;28;20058;-57
2022/12/10 10:24:38;;;;;;;20.27;9.75;;;2.70;99.90;;;2.23;100.00;100465.38;5145025;28;20047;-56
2022/12/10 10:27:16;;;;;;;27.13;11.35;;;2.60;99.90;;;2.19;100.00;100465.97;5145231;28;20046;-56
2022/12/10 10:29:54;;;;;;;24.13;10.05;;;2.60;99.90;;;2.21;100.00;100464.38;5145087;28;20130;-56
2022/12/10 10:32:47;;;;;;;29.90;12.32;;;2.50;99.90;;;2.20;100.00;100462.59;5145248;28;20038;-55
2022/12/10 10:35:27;;;;;;;21.88;9.52;;;2.60;99.90;;;2.15;100.00;100457.19;5143630;28;20505;-55
2022/12/10 10:38:02;;;;;;;31.98;12.88;;;2.50;99.90;;;2.17;100.00;100459.84;5145439;28;20050;-60
2022/12/10 10:40:42;;;;;;;25.73;11.55;;;2.50;99.90;;;2.15;100.00;100458.84;5144570;28;20046;-55
2022/12/10 10:43:20;;;;;;;23.73;10.43;;;2.50;99.90;;;2.10;100.00;100450.88;5145607;28;20043;-55
2022/12/10 10:45:59;;;;;;;23.90;10.13;;;2.40;99.90;;;2.10;100.00;100458.56;5144432;28;20085;-55
2022/12/10 10:48:32;;;;;;;22.20;9.75;;;2.40;99.90;;;2.15;100.00;100457.19;5145303;28;20054;-57
2022/12/10 10:51:15;;;;;;;21.10;8.40;;;2.50;99.90;;;2.19;100.00;100455.69;5144713;28;20049;-54
2022/12/10 10:53:51;;;;;;;18.65;8.48;;;2.50;99.90;;;2.23;100.00;100457.66;5144565;28;20093;-55
2022/12/10 10:56:27;;;;;;;24.65;9.80;;;2.50;99.90;;;2.27;100.00;100462.19;5143450;28;20471;-58